createdAt,value
2022-09-25T00:01:15.434Z,10.67
2022-09-25T00:03:43.435Z,10.27
2022-09-25T00:06:15.249Z,10.53
2022-09-25T00:08:43.892Z,10.57
2022-09-25T00:11:14.166Z,10.37
2022-09-25T00:13:43.458Z,11.50
2022-09-25T00:16:13.178Z,11.73
2022-09-25T00:18:58.747Z,10.57
2022-09-25T00:21:31.581Z,11.47
2022-09-25T00:24:00.876Z,11.90
2022-09-25T00:26:30.304Z,12.57
2022-09-25T00:28:59.073Z,11.43
2022-09-25T00:31:27.019Z,12.03
2022-09-25T00:33:55.779Z,11.43
2022-09-25T00:36:23.573Z,11.50
2022-09-25T00:38:54.336Z,11.30
2022-09-25T00:41:25.790Z,11.07
2022-09-25T00:43:56.457Z,10.60
2022-09-25T00:46:29.074Z,12.10
2022-09-25T00:49:03.667Z,10.90
2022-09-25T00:51:42.462Z,11.30
2022-09-25T00:54:17.534Z,12.07
2022-09-25T00:56:48.917Z,12.30
2022-09-25T00:59:20.055Z,10.97
2022-09-25T01:01:48.780Z,12.53
2022-09-25T01:04:18.490Z,11.73
2022-09-25T01:06:46.532Z,12.10
2022-09-25T01:09:16.380Z,12.70
2022-09-25T01:11:45.195Z,12.23
2022-09-25T01:14:17.600Z,11.00
2022-09-25T01:16:51.780Z,12.00
2022-09-25T01:19:39.326Z,12.83
2022-09-25T01:22:16.874Z,12.90
2022-09-25T01:24:57.314Z,13.60
2022-09-25T01:28:01.301Z,13.03
2022-09-25T01:30:33.690Z,12.30
2022-09-25T01:33:10.010Z,11.33
2022-09-25T01:35:46.673Z,12.13
2022-09-25T01:38:24.119Z,11.40
2022-09-25T01:40:57.757Z,11.43
2022-09-25T01:43:31.691Z,11.60
2022-09-25T01:46:03.452Z,12.80
2022-09-25T01:48:34.317Z,13.30
2022-09-25T01:51:07.081Z,13.60
2022-09-25T01:53:43.474Z,13.87
2022-09-25T01:56:20.362Z,14.30
2022-09-25T01:58:54.706Z,14.20
2022-09-25T02:01:35.383Z,12.70
2022-09-25T02:04:10.188Z,13.50
2022-09-25T02:06:40.956Z,14.30
2022-09-25T02:09:14.337Z,13.63
2022-09-25T02:11:45.498Z,12.90
2022-09-25T02:14:19.163Z,14.33
2022-09-25T02:16:52.450Z,12.63
2022-09-25T02:19:38.549Z,13.57
2022-09-25T02:22:11.701Z,14.50
2022-09-25T02:24:47.244Z,14.33
2022-09-25T02:27:15.850Z,15.03
2022-09-25T02:29:43.783Z,14.40
2022-09-25T02:32:15.055Z,14.07
2022-09-25T02:34:43.147Z,14.83
2022-09-25T02:37:12.594Z,13.83
2022-09-25T02:39:42.409Z,13.97
2022-09-25T02:42:20.531Z,13.30
2022-09-25T02:45:11.660Z,14.00
2022-09-25T02:47:51.331Z,12.77
2022-09-25T02:50:25.837Z,13.60
2022-09-25T02:53:04.667Z,13.27
2022-09-25T02:55:40.212Z,14.30
2022-09-25T02:58:14.398Z,14.03
2022-09-25T03:00:44.820Z,14.33
2022-09-25T03:03:16.809Z,14.97
2022-09-25T03:05:46.106Z,15.53
2022-09-25T03:08:37.249Z,12.60
2022-09-25T03:11:05.817Z,12.20
2022-09-25T03:13:34.147Z,13.10
2022-09-25T03:16:06.006Z,12.70
2022-09-25T03:18:35.275Z,10.80
2022-09-25T03:21:04.284Z,12.20
2022-09-25T03:23:32.451Z,13.50
2022-09-25T03:26:00.970Z,12.87
2022-09-25T03:28:29.017Z,12.33
2022-09-25T03:31:01.859Z,11.90
2022-09-25T03:33:31.300Z,11.80
2022-09-25T03:36:06.199Z,11.67
2022-09-25T03:38:36.235Z,11.53
2022-09-25T03:41:08.918Z,12.33
2022-09-25T03:43:37.350Z,11.10
2022-09-25T03:46:06.265Z,11.23
2022-09-25T03:48:34.375Z,11.77
2022-09-25T03:51:02.266Z,11.17
2022-09-25T03:53:33.812Z,11.50
2022-09-25T03:56:02.063Z,12.10
2022-09-25T03:58:30.484Z,10.80
2022-09-25T04:00:58.977Z,12.57
2022-09-25T04:03:29.085Z,11.47
2022-09-25T04:05:58.046Z,11.30
2022-09-25T04:08:27.039Z,12.00
2022-09-25T04:11:00.343Z,11.73
2022-09-25T04:13:30.639Z,12.40
2022-09-25T04:15:59.456Z,11.53
2022-09-25T04:18:28.238Z,11.77
2022-09-25T04:20:56.557Z,12.30
2022-09-25T04:23:24.323Z,11.80
2022-09-25T04:25:52.567Z,11.30
2022-09-25T04:28:23.251Z,11.77
2022-09-25T04:30:51.680Z,12.00
2022-09-25T04:33:38.291Z,12.37
2022-09-25T04:36:07.278Z,13.70
2022-09-25T04:38:35.581Z,12.70
2022-09-25T04:41:05.682Z,12.87
2022-09-25T04:43:35.378Z,12.90
2022-09-25T04:46:04.052Z,15.10
2022-09-25T04:48:32.203Z,14.73
2022-09-25T04:51:00.863Z,15.33
2022-09-25T04:53:30.103Z,14.10
2022-09-25T04:56:02.745Z,14.37
2022-09-25T04:58:30.962Z,15.17
2022-09-25T05:01:05.020Z,16.43
2022-09-25T05:03:33.490Z,16.07
2022-09-25T05:06:01.535Z,16.43
2022-09-25T05:08:29.563Z,16.30
2022-09-25T05:10:58.834Z,15.03
2022-09-25T05:13:28.346Z,16.10
2022-09-25T05:15:57.248Z,17.10
2022-09-25T05:18:26.968Z,14.20
2022-09-25T05:20:55.540Z,14.90
2022-09-25T05:23:24.083Z,16.20
2022-09-25T05:25:58.907Z,15.60
2022-09-25T05:28:27.258Z,16.13
2022-09-25T05:30:55.744Z,15.90
2022-09-25T05:33:23.862Z,15.30
2022-09-25T05:35:53.436Z,14.60
2022-09-25T05:38:21.534Z,14.13
2022-09-25T05:40:50.213Z,14.27
2022-09-25T05:43:18.627Z,15.20
2022-09-25T05:45:54.003Z,14.87
2022-09-25T05:48:21.812Z,12.63
2022-09-25T05:50:54.600Z,14.37
2022-09-25T05:53:22.802Z,13.20
2022-09-25T05:55:51.570Z,15.23
2022-09-25T05:58:19.970Z,14.00
2022-09-25T06:00:48.065Z,14.50
2022-09-25T06:03:16.510Z,14.70
2022-09-25T06:05:45.262Z,15.07
2022-09-25T06:08:15.533Z,14.43
2022-09-25T06:10:43.994Z,14.53
2022-09-25T06:13:12.029Z,13.70
2022-09-25T06:15:42.105Z,13.00
2022-09-25T06:18:10.716Z,13.07
2022-09-25T06:20:38.841Z,10.93
2022-09-25T06:23:07.090Z,10.47
2022-09-25T06:25:36.947Z,10.13
2022-09-25T06:28:05.054Z,10.20
2022-09-25T06:30:35.341Z,11.07
2022-09-25T06:33:04.424Z,12.27
2022-09-25T06:35:32.290Z,9.10
2022-09-25T06:38:02.477Z,10.00
2022-09-25T06:40:34.049Z,9.83
2022-09-25T06:43:04.878Z,10.33
2022-09-25T06:45:34.552Z,11.70
2022-09-25T06:48:03.411Z,12.30
2022-09-25T06:50:36.647Z,11.37
2022-09-25T06:53:04.611Z,11.27
2022-09-25T06:55:34.611Z,12.10
2022-09-25T06:58:04.393Z,12.00
2022-09-25T07:00:32.874Z,11.43
2022-09-25T07:03:19.058Z,12.77
2022-09-25T07:05:48.392Z,12.20
2022-09-25T07:08:21.157Z,11.03
2022-09-25T07:10:50.409Z,12.23
2022-09-25T07:13:24.468Z,14.27
2022-09-25T07:15:54.031Z,13.53
2022-09-25T07:18:22.761Z,12.30
2022-09-25T07:20:51.228Z,12.90
2022-09-25T07:23:21.391Z,12.30
2022-09-25T07:25:50.757Z,12.60
2022-09-25T07:28:20.259Z,12.07
2022-09-25T07:30:48.678Z,12.53
2022-09-25T07:33:17.441Z,12.77
2022-09-25T07:35:45.956Z,11.40
2022-09-25T07:38:14.612Z,9.30
2022-09-25T07:40:42.729Z,9.80
2022-09-25T07:43:10.666Z,9.80
2022-09-25T07:45:40.253Z,8.83
2022-09-25T07:48:08.257Z,9.13
2022-09-25T07:50:36.617Z,9.83
2022-09-25T07:53:05.043Z,9.70
2022-09-25T07:55:32.822Z,8.20
2022-09-25T07:58:00.777Z,8.40
2022-09-25T08:00:28.506Z,8.67
2022-09-25T08:02:58.916Z,9.77
2022-09-25T08:05:27.616Z,9.40
2022-09-25T08:07:56.019Z,8.77
2022-09-25T08:10:23.940Z,9.73
2022-09-25T08:12:52.367Z,8.90
2022-09-25T08:15:20.506Z,9.83
2022-09-25T08:17:48.307Z,9.37
2022-09-25T08:20:17.766Z,8.53
2022-09-25T08:22:45.668Z,9.50
2022-09-25T08:25:13.498Z,8.97
2022-09-25T08:27:41.519Z,9.57
2022-09-25T08:30:11.326Z,10.37
2022-09-25T08:32:39.246Z,8.33
2022-09-25T08:35:08.019Z,7.70
2022-09-25T08:37:41.631Z,7.63
2022-09-25T08:40:19.152Z,8.07
2022-09-25T08:42:49.853Z,7.50
2022-09-25T08:45:48.201Z,7.50
2022-09-25T08:48:39.245Z,7.20
2022-09-25T08:51:07.898Z,8.00
2022-09-25T08:53:38.809Z,7.83
2022-09-25T08:56:17.733Z,7.13
2022-09-25T08:58:52.903Z,8.43
2022-09-25T09:01:25.291Z,7.60
2022-09-25T09:04:03.188Z,7.53
2022-09-25T09:06:32.738Z,6.80
2022-09-25T09:09:07.405Z,7.07
2022-09-25T09:11:39.227Z,7.43
2022-09-25T09:14:11.160Z,6.60
2022-09-25T09:16:44.918Z,7.10
2022-09-25T09:19:13.825Z,6.50
2022-09-25T09:21:48.331Z,7.10
2022-09-25T09:24:24.472Z,7.20
2022-09-25T09:27:12.122Z,7.17
2022-09-25T09:30:05.206Z,6.40
2022-09-25T09:32:46.781Z,6.50
2022-09-25T09:35:29.845Z,6.83
2022-09-25T09:38:13.882Z,6.20
2022-09-25T09:40:57.827Z,6.27
2022-09-25T09:43:40.567Z,6.23
2022-09-25T09:46:16.608Z,7.20
2022-09-25T09:49:05.016Z,6.00
2022-09-25T09:51:37.556Z,5.83
2022-09-25T09:54:13.253Z,6.33
2022-09-25T09:56:45.590Z,6.20
2022-09-25T09:59:17.684Z,5.90
2022-09-25T10:01:50.648Z,6.20
2022-09-25T10:04:21.724Z,6.17
2022-09-25T10:06:54.728Z,6.30
2022-09-25T10:09:24.996Z,6.60
2022-09-25T10:12:02.026Z,6.60
2022-09-25T10:14:34.382Z,5.77
2022-09-25T10:17:02.971Z,6.60
2022-09-25T10:19:36.941Z,6.00
2022-09-25T10:22:08.702Z,6.33
2022-09-25T10:24:51.482Z,6.33
2022-09-25T10:27:41.333Z,6.00
2022-09-25T10:30:21.834Z,6.87
2022-09-25T10:33:02.013Z,7.00
2022-09-25T10:35:41.050Z,7.63
2022-09-25T10:38:24.529Z,7.20
2022-09-25T10:41:00.663Z,7.03
2022-09-25T10:43:29.950Z,7.53
2022-09-25T10:46:14.522Z,7.30
2022-09-25T10:49:00.731Z,7.87
2022-09-25T10:51:29.282Z,8.30
2022-09-25T10:54:13.014Z,8.63
2022-09-25T10:56:41.130Z,7.70
2022-09-25T10:59:20.056Z,8.33
2022-09-25T11:01:49.867Z,8.70
2022-09-25T11:04:21.090Z,9.10
2022-09-25T11:06:52.387Z,9.33
2022-09-25T11:09:23.131Z,10.10
2022-09-25T11:11:54.089Z,10.37
2022-09-25T11:14:32.852Z,10.30
2022-09-25T11:17:02.115Z,11.00
2022-09-25T11:19:31.796Z,11.00
2022-09-25T11:22:07.995Z,11.77
2022-09-25T11:25:01.641Z,11.83
2022-09-25T11:27:35.770Z,12.60
2022-09-25T11:30:07.860Z,12.53
2022-09-25T11:32:48.949Z,13.43
2022-09-25T11:35:34.773Z,14.33
2022-09-25T11:38:11.405Z,15.30
2022-09-25T11:41:04.213Z,13.90
2022-09-25T11:43:43.246Z,13.10
2022-09-25T11:46:23.166Z,12.90
2022-09-25T11:49:01.840Z,12.27
2022-09-25T11:52:00.699Z,12.47
2022-09-25T11:54:38.793Z,11.87
2022-09-25T11:57:11.806Z,11.40
2022-09-25T12:00:04.505Z,13.30
2022-09-25T12:03:00.995Z,13.10
2022-09-25T12:05:49.229Z,12.87
2022-09-25T12:08:35.618Z,12.50
2022-09-25T12:11:14.270Z,12.67
2022-09-25T12:13:51.911Z,13.23
2022-09-25T12:16:26.873Z,13.93
2022-09-25T12:19:19.120Z,13.37
2022-09-25T12:21:53.184Z,14.00
2022-09-25T12:24:36.537Z,13.67
2022-09-25T12:27:11.163Z,12.83
2022-09-25T12:30:00.990Z,12.90
2022-09-25T12:32:43.592Z,13.40
2022-09-25T12:35:26.791Z,14.67
2022-09-25T12:38:02.740Z,16.50
2022-09-25T12:40:36.553Z,14.27
2022-09-25T12:43:08.413Z,14.57
2022-09-25T12:45:41.108Z,13.27
2022-09-25T12:48:17.074Z,12.70
2022-09-25T12:50:52.273Z,13.47
2022-09-25T12:53:28.458Z,22.30
2022-09-25T12:56:03.935Z,14.20
2022-09-25T12:58:46.108Z,11.63
2022-09-25T13:01:22.806Z,13.83
2022-09-25T13:03:59.153Z,12.13
2022-09-25T13:06:36.234Z,12.77
2022-09-25T13:09:14.073Z,11.70
2022-09-25T13:11:48.782Z,12.40
2022-09-25T13:14:27.366Z,11.23
2022-09-25T13:16:55.492Z,12.00
2022-09-25T13:19:28.214Z,11.47
2022-09-25T13:22:10.168Z,11.00
2022-09-25T13:24:43.747Z,11.20
2022-09-25T13:27:19.011Z,10.40
2022-09-25T13:29:55.268Z,10.00
2022-09-25T13:32:25.033Z,10.70
2022-09-25T13:34:56.992Z,10.40
2022-09-25T13:37:33.574Z,10.27
2022-09-25T13:40:26.568Z,10.33
2022-09-25T13:42:55.528Z,8.83
2022-09-25T13:45:33.445Z,8.90
2022-09-25T13:48:07.935Z,8.87
2022-09-25T13:50:43.207Z,10.37
2022-09-25T13:53:21.347Z,9.77
2022-09-25T13:56:27.749Z,9.93
2022-09-25T13:59:38.984Z,11.07
2022-09-25T14:02:43.976Z,10.47
2022-09-25T14:05:17.784Z,10.53
2022-09-25T14:07:49.101Z,10.17
2022-09-25T14:10:18.963Z,10.30
2022-09-25T14:12:49.331Z,10.30
2022-09-25T14:15:27.880Z,10.10
2022-09-25T14:17:58.350Z,9.40
2022-09-25T14:20:35.416Z,9.50
2022-09-25T14:23:07.171Z,9.47
2022-09-25T14:25:38.956Z,9.63
2022-09-25T14:28:20.283Z,9.53
2022-09-25T14:31:15.986Z,9.40
2022-09-25T14:33:59.571Z,9.50
2022-09-25T14:36:39.974Z,8.70
2022-09-25T14:39:29.803Z,8.90
2022-09-25T14:42:27.105Z,7.43
2022-09-25T14:45:08.930Z,6.93
2022-09-25T14:47:40.250Z,7.83
2022-09-25T14:50:17.503Z,7.60
2022-09-25T14:52:45.377Z,8.00
2022-09-25T14:55:22.915Z,7.70
2022-09-25T14:57:52.805Z,8.33
2022-09-25T15:00:24.472Z,6.60
2022-09-25T15:02:56.314Z,6.83
2022-09-25T15:05:32.659Z,7.40
2022-09-25T15:08:03.066Z,6.17
2022-09-25T15:10:33.568Z,5.80
2022-09-25T15:13:15.917Z,5.90
2022-09-25T15:16:06.286Z,6.63
2022-09-25T15:18:37.221Z,8.17
2022-09-25T15:21:08.142Z,7.23
2022-09-25T15:23:38.563Z,5.90
2022-09-25T15:26:06.459Z,6.60
2022-09-25T15:28:40.158Z,6.53
2022-09-25T15:31:08.331Z,6.70
2022-09-25T15:33:38.172Z,7.10
2022-09-25T15:36:15.977Z,7.10
2022-09-25T15:38:44.736Z,6.10
2022-09-25T15:41:15.725Z,7.17
2022-09-25T15:43:45.030Z,7.47
2022-09-25T15:46:39.184Z,7.47
2022-09-25T15:49:07.529Z,8.77
2022-09-25T15:51:38.165Z,9.30
2022-09-25T15:54:28.192Z,7.97
2022-09-25T15:56:58.092Z,9.17
2022-09-25T15:59:30.637Z,8.70
2022-09-25T16:02:16.307Z,8.40
2022-09-25T16:04:50.475Z,8.17
2022-09-25T16:07:27.945Z,6.67
2022-09-25T16:09:58.033Z,6.70
2022-09-25T16:12:31.120Z,7.10
2022-09-25T16:15:03.259Z,6.90
2022-09-25T16:17:34.085Z,6.57
2022-09-25T16:20:05.527Z,6.20
2022-09-25T16:22:46.967Z,9.90
2022-09-25T16:25:21.948Z,10.53
2022-09-25T16:27:49.974Z,9.63
2022-09-25T16:30:22.276Z,5.10
2022-09-25T16:32:52.371Z,10.37
2022-09-25T16:35:57.580Z,5.13
2022-09-25T16:38:29.755Z,6.33
2022-09-25T16:41:05.747Z,5.47
2022-09-25T16:43:36.084Z,5.80
2022-09-25T16:46:14.148Z,5.70
2022-09-25T16:48:42.534Z,5.93
2022-09-25T16:51:15.570Z,5.60
2022-09-25T16:53:44.125Z,4.83
2022-09-25T16:56:11.963Z,5.00
2022-09-25T16:58:39.655Z,4.97
2022-09-25T17:01:10.265Z,4.90
2022-09-25T17:03:49.815Z,4.10
2022-09-25T17:06:17.891Z,4.90
2022-09-25T17:08:45.792Z,4.87
2022-09-25T17:11:14.100Z,4.23
2022-09-25T17:13:43.236Z,4.37
2022-09-25T17:16:12.403Z,4.27
2022-09-25T17:18:41.198Z,4.07
2022-09-25T17:21:16.215Z,3.70
2022-09-25T17:23:44.794Z,4.27
2022-09-25T17:26:18.417Z,3.97
2022-09-25T17:28:46.341Z,5.30
2022-09-25T17:31:20.062Z,4.70
2022-09-25T17:33:51.255Z,5.17
2022-09-25T17:36:19.429Z,7.40
2022-09-25T17:38:47.088Z,6.60
2022-09-25T17:41:20.340Z,6.90
2022-09-25T17:43:49.313Z,7.03
2022-09-25T17:46:19.173Z,7.10
2022-09-25T17:48:53.182Z,6.83
2022-09-25T17:51:24.438Z,6.40
2022-09-25T17:53:52.683Z,6.70
2022-09-25T17:56:21.143Z,6.70
2022-09-25T17:58:48.917Z,7.17
2022-09-25T18:01:22.413Z,7.40
2022-09-25T18:03:50.329Z,6.73
2022-09-25T18:06:19.192Z,7.77
2022-09-25T18:08:47.919Z,8.17
2022-09-25T18:11:16.581Z,8.33
2022-09-25T18:13:45.313Z,8.60
2022-09-25T18:16:16.622Z,8.70
2022-09-25T18:19:03.855Z,8.40
2022-09-25T18:21:49.508Z,9.10
2022-09-25T18:24:17.302Z,9.40
2022-09-25T18:26:46.279Z,8.93
2022-09-25T18:29:16.830Z,9.50
2022-09-25T18:31:45.131Z,9.67
2022-09-25T18:34:14.561Z,9.27
2022-09-25T18:36:42.665Z,10.70
2022-09-25T18:39:10.515Z,9.97
2022-09-25T18:41:39.094Z,10.20
2022-09-25T18:44:08.116Z,9.80
2022-09-25T18:46:37.558Z,10.37
2022-09-25T18:49:05.978Z,10.97
2022-09-25T18:51:36.208Z,11.07
2022-09-25T18:54:04.106Z,11.07
2022-09-25T18:56:34.438Z,10.60
2022-09-25T18:59:05.494Z,10.90
2022-09-25T19:01:34.900Z,11.73
2022-09-25T19:04:02.946Z,10.20
2022-09-25T19:06:31.209Z,10.40
2022-09-25T19:09:01.288Z,10.97
2022-09-25T19:11:29.446Z,11.13
2022-09-25T19:13:57.159Z,10.10
2022-09-25T19:16:25.218Z,10.57
2022-09-25T19:18:52.928Z,11.87
2022-09-25T19:21:22.563Z,12.50
2022-09-25T19:23:51.051Z,11.67
2022-09-25T19:26:25.653Z,12.07
2022-09-25T19:28:54.255Z,12.53
2022-09-25T19:31:23.506Z,13.70
2022-09-25T19:33:52.117Z,12.30
2022-09-25T19:36:22.239Z,13.83
2022-09-25T19:38:49.887Z,12.67
2022-09-25T19:41:21.862Z,12.83
2022-09-25T19:43:49.592Z,12.97
2022-09-25T19:46:18.267Z,14.43
2022-09-25T19:48:46.762Z,13.23
2022-09-25T19:51:16.224Z,13.20
2022-09-25T19:53:44.706Z,12.57
2022-09-25T19:56:13.206Z,13.13
2022-09-25T19:58:43.040Z,10.73
2022-09-25T20:01:12.549Z,10.87
2022-09-25T20:03:40.581Z,10.67
2022-09-25T20:06:09.980Z,10.53
2022-09-25T20:08:38.050Z,9.87
2022-09-25T20:11:18.554Z,11.30
2022-09-25T20:13:48.756Z,10.50
2022-09-25T20:16:18.879Z,10.63
2022-09-25T20:18:49.229Z,10.70
2022-09-25T20:21:17.639Z,11.50
2022-09-25T20:23:45.369Z,10.80
2022-09-25T20:26:16.646Z,10.00
2022-09-25T20:28:45.259Z,10.77
2022-09-25T20:31:16.226Z,11.40
2022-09-25T20:33:44.084Z,10.80
2022-09-25T20:36:13.608Z,10.10
2022-09-25T20:38:41.959Z,10.67
2022-09-25T20:41:12.169Z,10.50
2022-09-25T20:43:40.408Z,9.70
2022-09-25T20:46:10.559Z,9.60
2022-09-25T20:48:41.488Z,9.90
2022-09-25T20:51:11.476Z,10.07
2022-09-25T20:53:39.874Z,9.17
2022-09-25T20:56:09.101Z,9.80
2022-09-25T20:58:38.392Z,9.87
2022-09-25T21:01:08.944Z,9.53
2022-09-25T21:03:41.268Z,8.80
2022-09-25T21:06:12.743Z,9.90
2022-09-25T21:08:40.405Z,10.47
2022-09-25T21:11:10.368Z,9.90
2022-09-25T21:13:38.832Z,9.30
2022-09-25T21:16:08.173Z,8.63
2022-09-25T21:18:36.626Z,8.80
2022-09-25T21:21:07.794Z,8.53
2022-09-25T21:23:35.980Z,7.93
2022-09-25T21:26:05.063Z,8.63
2022-09-25T21:28:34.134Z,7.70
2022-09-25T21:31:05.875Z,6.90
2022-09-25T21:33:33.611Z,7.80
2022-09-25T21:36:02.283Z,6.67
2022-09-25T21:38:31.867Z,6.67
2022-09-25T21:41:01.626Z,6.10
2022-09-25T21:43:31.235Z,6.73
2022-09-25T21:46:01.528Z,6.57
2022-09-25T21:48:30.209Z,5.90
2022-09-25T21:50:59.629Z,6.77
2022-09-25T21:53:27.369Z,6.10
2022-09-25T21:56:02.563Z,6.20
2022-09-25T21:58:31.325Z,6.90
2022-09-25T22:01:11.880Z,6.40
2022-09-25T22:03:41.363Z,6.37
2022-09-25T22:06:11.010Z,6.50
2022-09-25T22:08:39.996Z,5.67
2022-09-25T22:11:10.204Z,6.17
2022-09-25T22:13:40.828Z,6.10
2022-09-25T22:16:10.468Z,5.23
2022-09-25T22:18:42.955Z,6.10
2022-09-25T22:21:10.981Z,5.77
2022-09-25T22:23:38.613Z,6.30
2022-09-25T22:26:06.906Z,6.40
2022-09-25T22:28:36.626Z,5.63
2022-09-25T22:31:06.496Z,6.10
2022-09-25T22:33:34.544Z,5.87
2022-09-25T22:36:03.883Z,6.10
2022-09-25T22:38:32.159Z,6.43
2022-09-25T22:41:04.679Z,6.70
2022-09-25T22:43:33.067Z,6.17
2022-09-25T22:46:02.138Z,7.23
2022-09-25T22:48:31.065Z,6.77
2022-09-25T22:51:01.576Z,7.40
2022-09-25T22:53:30.904Z,7.60
2022-09-25T22:56:08.863Z,7.80
2022-09-25T22:58:37.172Z,8.20
2022-09-25T23:01:10.081Z,9.00
2022-09-25T23:03:38.149Z,7.97
2022-09-25T23:06:05.811Z,8.10
2022-09-25T23:08:33.481Z,8.37
2022-09-25T23:11:07.528Z,7.20
2022-09-25T23:13:36.466Z,8.43
2022-09-25T23:16:09.546Z,7.40
2022-09-25T23:18:38.053Z,8.00
2022-09-25T23:21:06.197Z,7.77
2022-09-25T23:23:33.829Z,8.00
2022-09-25T23:26:03.398Z,7.03
2022-09-25T23:28:33.736Z,6.90
2022-09-25T23:31:08.631Z,7.70
2022-09-25T23:33:36.933Z,8.17
2022-09-25T23:36:06.539Z,7.20
2022-09-25T23:38:35.124Z,7.50
2022-09-25T23:41:03.168Z,7.93
2022-09-25T23:43:31.030Z,7.33
2022-09-25T23:45:58.711Z,7.70
2022-09-25T23:48:27.717Z,7.30
2022-09-25T23:50:57.285Z,8.10
2022-09-25T23:53:25.010Z,7.03
2022-09-25T23:55:52.611Z,8.23
2022-09-25T23:58:20.364Z,6.73
